Time;durP1;ratioP1;P1;durP2;ratioP2;P2;SDS_P1;SDS_P2;PMS_P1;PMS_P2;Temp;Humidity;BMP_temperature;BMP_pressure;BME280_temperature;BME280_humidity;BME280_pressure;Samples;Min_cycle;Max_cycle;Signal;HPM_P1;HPM_P2
2021/11/15 00:00:42;;;;;;;23.50;6.77;;;15.90;99.90;;;;;;5066779;28;20244;-64
2021/11/15 00:03:11;;;;;;;23.43;7.43;;;15.90;99.90;;;;;;5067395;28;20186;-64
2021/11/15 00:05:38;;;;;;;32.27;7.10;;;15.80;99.90;;;;;;5065511;28;20258;-64
2021/11/15 00:08:05;;;;;;;23.33;7.43;;;15.80;99.90;;;;;;5062375;28;20631;-65
2021/11/15 00:10:32;;;;;;;23.53;6.80;;;15.80;99.90;;;;;;5066132;28;20535;-64
2021/11/15 00:12:58;;;;;;;17.30;6.97;;;15.80;99.90;;;;;;5067618;28;20191;-64
2021/11/15 00:15:25;;;;;;;26.60;7.30;;;15.80;99.90;;;;;;5064002;28;20259;-64
2021/11/15 00:17:51;;;;;;;33.73;6.47;;;15.80;99.90;;;;;;5067360;28;20179;-65
2021/11/15 00:20:19;;;;;;;25.83;8.07;;;15.80;99.90;;;;;;5067745;28;20656;-65
2021/11/15 00:22:46;;;;;;;25.93;7.23;;;15.70;99.90;;;;;;5067888;28;20227;-65
2021/11/15 00:25:13;;;;;;;27.87;6.67;;;15.70;99.90;;;;;;5064940;28;20202;-65
2021/11/15 00:27:41;;;;;;;30.03;8.93;;;15.70;99.90;;;;;;5055939;28;20199;-64
2021/11/15 00:30:11;;;;;;;17.73;7.23;;;15.70;99.90;;;;;;5059105;28;20203;-65
2021/11/15 00:32:37;;;;;;;25.77;6.80;;;15.70;99.90;;;;;;5052917;28;20194;-65
2021/11/15 00:35:07;;;;;;;18.60;7.00;;;15.70;99.90;;;;;;5058126;28;20257;-65
2021/11/15 00:37:34;;;;;;;24.30;6.80;;;15.70;99.90;;;;;;5053010;28;20852;-64
2021/11/15 00:40:01;;;;;;;27.80;6.93;;;15.60;99.90;;;;;;5053528;28;20225;-65
2021/11/15 00:42:27;;;;;;;24.43;7.10;;;15.60;99.90;;;;;;5057160;28;20953;-64
2021/11/15 00:44:54;;;;;;;25.60;6.93;;;15.70;99.90;;;;;;5057582;28;20197;-63
2021/11/15 00:47:20;;;;;;;24.23;6.87;;;15.70;99.90;;;;;;5059509;28;20187;-65
2021/11/15 00:49:47;;;;;;;24.80;6.37;;;15.60;99.90;;;;;;5063404;28;20199;-64
2021/11/15 00:52:13;;;;;;;26.77;7.43;;;15.60;99.90;;;;;;5055093;28;20213;-63
2021/11/15 00:54:39;;;;;;;25.20;7.30;;;15.60;99.90;;;;;;5056590;28;20203;-64
2021/11/15 00:57:06;;;;;;;34.70;7.27;;;15.60;99.90;;;;;;5054848;28;20590;-65
2021/11/15 00:59:33;;;;;;;24.93;7.07;;;15.60;99.90;;;;;;5056891;28;20276;-65
2021/11/15 01:02:02;;;;;;;22.67;7.17;;;15.60;99.90;;;;;;5058789;28;20240;-64
2021/11/15 01:04:29;;;;;;;28.03;7.07;;;15.60;99.90;;;;;;5048676;28;20655;-65
2021/11/15 01:06:56;;;;;;;30.13;6.67;;;15.60;99.90;;;;;;5052527;28;20221;-64
2021/11/15 01:09:24;;;;;;;20.23;6.90;;;15.60;99.90;;;;;;5053230;28;20191;-64
2021/11/15 01:11:53;;;;;;;23.93;7.47;;;15.70;99.90;;;;;;5045884;28;20701;-64
2021/11/15 01:14:20;;;;;;;25.17;6.93;;;15.70;99.90;;;;;;5052638;28;20279;-68
2021/11/15 01:16:46;;;;;;;25.93;7.33;;;15.70;99.90;;;;;;5059682;28;20803;-66
2021/11/15 01:19:14;;;;;;;25.83;7.47;;;15.80;99.90;;;;;;5057062;28;20215;-64
2021/11/15 01:21:42;;;;;;;24.87;7.50;;;15.80;99.90;;;;;;5056702;28;20186;-64
2021/11/15 01:24:09;;;;;;;27.03;6.90;;;15.70;99.90;;;;;;5058006;28;20252;-65
2021/11/15 01:26:37;;;;;;;29.37;8.57;;;15.70;99.90;;;;;;5051958;28;20242;-66
2021/11/15 01:29:06;;;;;;;25.00;7.07;;;15.70;99.90;;;;;;5053751;28;20199;-66
2021/11/15 01:31:33;;;;;;;27.23;7.30;;;15.70;99.90;;;;;;5053310;28;20191;-66
2021/11/15 01:34:01;;;;;;;25.77;7.27;;;15.70;99.90;;;;;;5050527;28;20191;-64
2021/11/15 01:36:28;;;;;;;22.67;7.37;;;15.70;99.90;;;;;;5049515;28;20192;-65
2021/11/15 01:38:55;;;;;;;21.37;7.47;;;15.70;99.90;;;;;;5058518;28;20295;-65
2021/11/15 01:41:23;;;;;;;27.73;6.90;;;15.60;99.90;;;;;;5050772;28;20207;-64
2021/11/15 01:43:49;;;;;;;33.73;7.07;;;15.60;99.90;;;;;;5054484;28;20607;-66
2021/11/15 01:46:16;;;;;;;25.67;6.60;;;15.60;99.90;;;;;;5054778;28;20205;-66
2021/11/15 01:48:42;;;;;;;19.83;7.03;;;15.60;99.90;;;;;;5063604;28;20657;-66
2021/11/15 01:51:08;;;;;;;27.10;6.80;;;15.60;99.90;;;;;;5061171;28;20194;-68
2021/11/15 01:53:35;;;;;;;38.13;7.60;;;15.60;99.90;;;;;;5066380;28;20834;-67
2021/11/15 01:56:01;;;;;;;27.97;7.30;;;15.60;99.90;;;;;;5053245;28;20199;-68
2021/11/15 01:58:27;;;;;;;26.03;7.87;;;15.60;99.90;;;;;;5052893;28;20210;-63
2021/11/15 02:00:59;;;;;;;30.63;7.67;;;15.60;99.90;;;;;;5063061;28;20187;-63
2021/11/15 02:03:30;;;;;;;27.17;7.57;;;15.60;99.90;;;;;;5054016;28;20211;-63
2021/11/15 02:05:57;;;;;;;23.33;6.77;;;15.60;99.90;;;;;;5058864;28;20186;-64
2021/11/15 02:08:23;;;;;;;26.43;7.43;;;15.70;99.90;;;;;;5061901;28;20195;-64
2021/11/15 02:10:50;;;;;;;26.63;7.60;;;15.70;99.90;;;;;;5052696;28;20837;-63
2021/11/15 02:13:20;;;;;;;21.10;7.23;;;15.70;99.90;;;;;;5051729;28;20195;-64
2021/11/15 02:15:47;;;;;;;30.77;7.53;;;15.70;99.90;;;;;;5051876;28;20191;-63
2021/11/15 02:18:14;;;;;;;30.63;6.70;;;15.80;99.90;;;;;;5059414;28;20191;-64
2021/11/15 02:21:00;;;;;;;25.83;7.67;;;15.80;99.90;;;;;;5069124;28;20183;-63
2021/11/15 02:23:35;;;;;;;32.30;7.50;;;15.70;99.90;;;;;;5061060;28;20774;-64
2021/11/15 02:26:04;;;;;;;26.17;7.30;;;15.70;99.90;;;;;;5060304;28;20206;-63
2021/11/15 02:28:35;;;;;;;28.57;7.80;;;15.70;99.90;;;;;;5053845;28;20195;-63
2021/11/15 02:31:04;;;;;;;30.67;7.53;;;15.70;99.90;;;;;;5061483;28;20191;-63
2021/11/15 02:33:31;;;;;;;36.97;8.97;;;15.70;99.90;;;;;;5053928;28;20521;-63
2021/11/15 02:36:02;;;;;;;33.07;7.47;;;15.70;99.90;;;;;;5061483;28;20198;-61
2021/11/15 02:38:29;;;;;;;21.73;7.27;;;15.80;99.90;;;;;;5055083;28;20210;-62
2021/11/15 02:40:56;;;;;;;29.70;7.00;;;15.80;99.90;;;;;;5059910;28;20647;-63
2021/11/15 02:43:23;;;;;;;33.03;7.20;;;15.70;99.90;;;;;;5058599;28;20252;-63
2021/11/15 02:45:50;;;;;;;31.77;7.07;;;15.70;99.90;;;;;;5060873;28;20183;-62
2021/11/15 02:48:24;;;;;;;23.20;6.33;;;15.70;99.90;;;;;;5050377;28;20188;-63
2021/11/15 02:50:51;;;;;;;34.90;7.23;;;15.70;99.90;;;;;;5063645;28;20183;-62
2021/11/15 02:53:18;;;;;;;24.93;7.50;;;15.70;99.90;;;;;;5064271;28;20194;-65
2021/11/15 02:55:46;;;;;;;30.53;7.17;;;15.70;99.90;;;;;;5058601;28;20263;-65
2021/11/15 02:58:15;;;;;;;25.67;7.00;;;15.70;99.90;;;;;;5057967;28;20195;-64
2021/11/15 03:00:52;;;;;;;25.20;7.27;;;15.70;99.90;;;;;;5062362;28;20198;-65
2021/11/15 03:03:19;;;;;;;26.77;7.50;;;15.80;99.90;;;;;;5050508;28;20221;-64
2021/11/15 03:05:50;;;;;;;24.77;7.70;;;15.80;99.90;;;;;;5055633;28;20649;-64
2021/11/15 03:08:19;;;;;;;33.80;7.93;;;15.90;99.90;;;;;;5081327;28;20190;-64
2021/11/15 03:10:48;;;;;;;35.67;7.67;;;16.00;99.90;;;;;;5055997;28;20187;-67
2021/11/15 03:13:18;;;;;;;35.77;7.03;;;16.10;99.90;;;;;;5059732;28;20191;-65
2021/11/15 03:15:50;;;;;;;32.50;7.47;;;16.20;99.90;;;;;;5062723;28;20187;-65
2021/11/15 03:18:24;;;;;;;26.03;6.80;;;16.20;99.90;;;;;;5049359;28;20187;-66
2021/11/15 03:21:09;;;;;;;27.27;7.60;;;16.30;99.90;;;;;;5049872;28;20194;-65
2021/11/15 03:23:41;;;;;;;35.13;7.30;;;16.30;99.90;;;;;;5058777;28;20249;-66
2021/11/15 03:26:09;;;;;;;28.23;7.33;;;16.40;99.90;;;;;;5053998;28;20211;-66
2021/11/15 03:28:40;;;;;;;34.33;7.23;;;16.50;99.90;;;;;;5062981;28;20200;-66
2021/11/15 03:31:15;;;;;;;43.07;7.13;;;16.50;99.90;;;;;;5058465;28;20186;-65
2021/11/15 03:33:42;;;;;;;25.23;7.17;;;16.50;99.90;;;;;;5058945;28;20202;-66
2021/11/15 03:36:10;;;;;;;25.40;6.63;;;16.40;99.90;;;;;;5059138;28;20187;-64
2021/11/15 03:38:36;;;;;;;31.43;7.80;;;16.40;99.90;;;;;;5049051;28;20207;-65
2021/11/15 03:41:04;;;;;;;28.97;7.00;;;16.40;99.90;;;;;;5054552;28;20329;-66
2021/11/15 03:43:31;;;;;;;30.77;6.93;;;16.50;99.90;;;;;;5049393;28;20596;-64
2021/11/15 03:45:57;;;;;;;28.07;7.10;;;16.50;99.70;;;;;;5060736;28;20194;-65
2021/11/15 03:48:24;;;;;;;32.57;7.43;;;16.50;99.80;;;;;;5064140;28;20191;-66
2021/11/15 03:50:55;;;;;;;31.70;7.53;;;16.50;99.80;;;;;;5056496;28;20197;-65
2021/11/15 03:53:43;;;;;;;25.60;7.40;;;16.60;99.70;;;;;;5046567;28;20188;-65
2021/11/15 03:56:13;;;;;;;26.20;6.33;;;16.60;99.70;;;;;;5058927;28;20175;-64
2021/11/15 03:58:42;;;;;;;32.83;7.43;;;16.70;99.40;;;;;;5064560;28;20715;-63
2021/11/15 04:01:11;;;;;;;29.87;8.03;;;16.70;99.30;;;;;;5068517;28;20272;-63
2021/11/15 04:03:41;;;;;;;27.60;7.57;;;16.70;99.10;;;;;;5049572;28;20203;-64
2021/11/15 04:06:27;;;;;;;27.27;7.20;;;16.70;99.20;;;;;;5057109;28;20185;-63
2021/11/15 04:08:58;;;;;;;27.20;6.83;;;16.70;98.90;;;;;;5054703;28;20191;-65
2021/11/15 04:11:29;;;;;;;23.87;7.83;;;16.70;98.80;;;;;;5066559;28;20240;-65
2021/11/15 04:14:01;;;;;;;31.50;7.10;;;16.80;98.70;;;;;;5060143;28;20195;-64
2021/11/15 04:16:28;;;;;;;34.50;7.40;;;16.70;98.60;;;;;;5067333;28;20182;-64
2021/11/15 04:19:05;;;;;;;32.43;7.73;;;16.70;99.00;;;;;;5057381;28;20388;-64
2021/11/15 04:21:33;;;;;;;30.30;7.33;;;16.60;98.90;;;;;;5049954;28;20571;-65
2021/11/15 04:23:59;;;;;;;33.60;7.30;;;16.60;98.80;;;;;;5054772;28;20287;-63
2021/11/15 04:26:25;;;;;;;26.50;7.17;;;16.50;98.80;;;;;;5063180;28;20224;-64
2021/11/15 04:28:52;;;;;;;37.47;7.23;;;16.40;98.90;;;;;;5058796;28;20968;-64
2021/11/15 04:31:18;;;;;;;30.47;6.77;;;16.30;99.10;;;;;;5062995;28;20240;-65
2021/11/15 04:33:44;;;;;;;27.43;7.97;;;16.30;99.00;;;;;;5067017;28;20222;-65
2021/11/15 04:36:10;;;;;;;29.63;7.20;;;16.20;98.90;;;;;;5058647;28;20191;-64
2021/11/15 04:38:37;;;;;;;24.40;6.57;;;16.20;99.10;;;;;;5072762;28;20208;-65
2021/11/15 04:41:03;;;;;;;23.13;6.57;;;16.10;99.00;;;;;;5062202;28;20537;-63
2021/11/15 04:43:29;;;;;;;35.87;7.33;;;16.10;99.10;;;;;;5065045;28;20693;-61
2021/11/15 04:45:56;;;;;;;37.63;7.30;;;16.10;99.00;;;;;;5060352;28;20179;-62
2021/11/15 04:48:22;;;;;;;30.30;7.67;;;16.10;98.90;;;;;;5057706;28;20839;-63
2021/11/15 04:50:48;;;;;;;32.10;7.20;;;16.20;98.80;;;;;;5051634;28;20199;-63
2021/11/15 04:53:15;;;;;;;38.10;7.70;;;16.20;98.80;;;;;;5051413;28;20223;-63
2021/11/15 04:55:41;;;;;;;29.50;7.77;;;16.30;98.70;;;;;;5061853;28;20277;-63
2021/11/15 04:58:07;;;;;;;34.43;8.67;;;16.40;98.70;;;;;;5061905;28;20697;-63
2021/11/15 05:00:37;;;;;;;35.63;7.20;;;16.40;98.50;;;;;;5066902;28;20697;-62
2021/11/15 05:03:04;;;;;;;29.80;7.63;;;16.40;98.60;;;;;;5062577;28;20209;-61
2021/11/15 05:05:31;;;;;;;28.03;7.10;;;16.40;98.60;;;;;;5065282;28;20210;-63
2021/11/15 05:07:57;;;;;;;29.77;7.10;;;16.40;98.50;;;;;;5058174;28;20198;-66
2021/11/15 05:10:28;;;;;;;27.60;7.93;;;16.50;98.50;;;;;;5049923;28;20218;-65
2021/11/15 05:12:57;;;;;;;33.17;7.07;;;16.50;98.60;;;;;;5054709;28;20187;-65
2021/11/15 05:15:25;;;;;;;35.03;7.23;;;16.50;98.60;;;;;;5056467;28;20210;-64
2021/11/15 05:17:52;;;;;;;23.90;6.90;;;16.60;98.70;;;;;;5057102;28;20206;-64
2021/11/15 05:20:20;;;;;;;22.67;7.10;;;16.60;98.60;;;;;;5058718;28;20753;-64
2021/11/15 05:22:48;;;;;;;38.93;7.87;;;16.60;98.70;;;;;;5065889;28;20297;-66
2021/11/15 05:25:16;;;;;;;27.70;7.40;;;16.70;98.90;;;;;;5058053;28;20187;-65
2021/11/15 05:27:42;;;;;;;32.50;6.83;;;16.70;98.80;;;;;;5045862;28;20190;-65
2021/11/15 05:30:14;;;;;;;28.43;7.43;;;16.70;98.90;;;;;;5064251;28;20657;-66
2021/11/15 05:32:40;;;;;;;31.87;7.07;;;16.80;99.10;;;;;;5061961;28;20189;-66
2021/11/15 05:35:08;;;;;;;31.90;7.40;;;16.80;99.00;;;;;;5063386;28;20665;-65
2021/11/15 05:37:35;;;;;;;33.97;7.87;;;16.90;98.90;;;;;;5058762;28;20199;-66
2021/11/15 05:40:04;;;;;;;25.17;6.47;;;17.00;99.00;;;;;;5049728;28;20227;-66
2021/11/15 05:42:30;;;;;;;38.27;7.57;;;17.10;99.10;;;;;;5047534;28;20218;-65
2021/11/15 05:44:57;;;;;;;38.13;7.23;;;17.10;99.00;;;;;;5053913;28;20202;-66
2021/11/15 05:47:23;;;;;;;30.77;7.63;;;17.20;98.90;;;;;;5060434;28;20236;-65
2021/11/15 05:49:50;;;;;;;28.50;7.90;;;17.30;98.60;;;;;;5063984;28;20658;-65
2021/11/15 05:52:20;;;;;;;237.30;15.23;;;17.40;98.60;;;;;;5059755;28;20210;-65
2021/11/15 05:54:46;;;;;;;32.93;7.33;;;17.40;98.40;;;;;;5047488;28;20694;-64
2021/11/15 05:57:12;;;;;;;38.50;7.33;;;17.50;98.40;;;;;;5048133;28;20215;-64
2021/11/15 05:59:38;;;;;;;34.83;7.10;;;17.60;98.00;;;;;;5051855;28;20483;-66
2021/11/15 06:02:05;;;;;;;25.60;6.33;;;17.60;98.00;;;;;;5059465;28;20199;-64
2021/11/15 06:04:31;;;;;;;37.13;6.93;;;17.60;98.40;;;;;;5053040;28;20207;-65
2021/11/15 06:06:58;;;;;;;27.20;6.97;;;17.60;98.70;;;;;;5047547;28;20187;-64
2021/11/15 06:09:24;;;;;;;29.70;6.93;;;17.60;98.90;;;;;;5039012;28;20191;-64
2021/11/15 06:11:50;;;;;;;28.27;7.20;;;17.60;99.00;;;;;;5064345;28;20190;-65
2021/11/15 06:14:16;;;;;;;25.87;6.40;;;17.60;98.80;;;;;;5056836;28;20289;-65
2021/11/15 06:16:43;;;;;;;26.10;6.63;;;17.60;98.80;;;;;;5057456;28;20198;-65
2021/11/15 06:19:09;;;;;;;28.90;6.83;;;17.70;98.40;;;;;;5061354;28;20698;-64
2021/11/15 06:21:35;;;;;;;36.17;7.07;;;17.80;97.90;;;;;;5057142;28;20195;-64
2021/11/15 06:24:02;;;;;;;19.57;6.30;;;17.80;97.00;;;;;;5045724;28;20700;-64
2021/11/15 06:26:30;;;;;;;26.13;6.37;;;18.00;96.60;;;;;;5049509;28;20191;-66
2021/11/15 06:28:57;;;;;;;24.87;7.27;;;18.20;96.00;;;;;;5058261;28;20198;-65
2021/11/15 06:31:24;;;;;;;26.07;5.43;;;18.40;95.00;;;;;;5059217;28;20222;-66
2021/11/15 06:33:52;;;;;;;21.30;6.37;;;18.60;93.70;;;;;;5060779;28;20185;-65
2021/11/15 06:36:23;;;;;;;29.33;6.63;;;18.70;95.10;;;;;;5063066;28;20264;-66
2021/11/15 06:38:53;;;;;;;18.30;5.43;;;18.60;94.70;;;;;;5052844;28;20641;-66
2021/11/15 06:41:22;;;;;;;24.77;5.13;;;18.50;94.70;;;;;;5053342;28;20191;-63
2021/11/15 06:43:48;;;;;;;18.33;5.10;;;18.50;95.30;;;;;;5063770;28;20183;-64
2021/11/15 06:46:15;;;;;;;21.87;6.33;;;18.50;95.40;;;;;;5059119;28;20931;-65
2021/11/15 06:48:42;;;;;;;18.93;5.37;;;18.50;95.20;;;;;;5057470;28;20197;-65
2021/11/15 06:51:13;;;;;;;25.13;5.23;;;18.50;95.50;;;;;;5049099;28;20195;-66
2021/11/15 06:53:42;;;;;;;23.97;5.67;;;18.50;95.90;;;;;;5049284;28;20362;-66
2021/11/15 06:56:09;;;;;;;21.03;4.97;;;18.50;96.40;;;;;;5061602;28;20727;-65
2021/11/15 06:58:36;;;;;;;13.37;4.60;;;18.60;97.00;;;;;;5048940;28;20630;-65
2021/11/15 07:01:04;;;;;;;22.00;5.00;;;18.60;97.30;;;;;;5058839;28;20199;-65
2021/11/15 07:03:35;;;;;;;20.70;5.57;;;18.60;97.40;;;;;;5056339;28;20257;-64
2021/11/15 07:06:01;;;;;;;19.27;4.47;;;18.60;97.50;;;;;;5055111;28;20188;-65
2021/11/15 07:08:29;;;;;;;32.40;6.60;;;18.70;98.70;;;;;;5057324;28;20179;-63
2021/11/15 07:10:55;;;;;;;28.27;5.97;;;18.60;99.10;;;;;;5062330;28;20285;-63
2021/11/15 07:13:22;;;;;;;26.07;6.70;;;18.60;98.80;;;;;;5060379;28;20782;-62
2021/11/15 07:15:48;;;;;;;24.53;5.80;;;18.70;98.20;;;;;;5059792;28;20191;-63
2021/11/15 07:18:17;;;;;;;29.80;6.53;;;18.70;98.10;;;;;;5064813;28;20812;-63
2021/11/15 07:20:49;;;;;;;25.03;6.40;;;18.70;97.50;;;;;;5061744;28;20835;-63
2021/11/15 07:23:16;;;;;;;25.90;6.20;;;18.80;97.00;;;;;;5061175;28;20203;-64
2021/11/15 07:25:42;;;;;;;28.37;7.23;;;18.80;96.50;;;;;;5053986;28;20195;-64
2021/11/15 07:28:09;;;;;;;22.83;6.77;;;18.90;96.60;;;;;;5056936;28;20222;-65
2021/11/15 07:30:35;;;;;;;23.10;5.90;;;18.90;97.70;;;;;;5060743;28;20207;-66
2021/11/15 07:33:02;;;;;;;25.70;6.20;;;18.80;97.60;;;;;;5064048;28;20191;-66
2021/11/15 07:35:28;;;;;;;22.10;6.43;;;18.80;97.90;;;;;;5062907;28;20376;-63
2021/11/15 07:37:55;;;;;;;23.87;6.23;;;18.80;98.30;;;;;;5051467;28;20844;-63
2021/11/15 07:40:21;;;;;;;31.43;6.67;;;18.80;97.80;;;;;;5052707;28;20219;-64
2021/11/15 07:42:49;;;;;;;20.37;6.63;;;18.80;97.50;;;;;;5055633;28;20607;-64
2021/11/15 07:45:15;;;;;;;20.73;6.30;;;18.80;97.70;;;;;;5056879;28;20215;-64
2021/11/15 07:47:43;;;;;;;19.57;6.53;;;18.90;98.40;;;;;;5058772;28;20667;-64
2021/11/15 07:50:12;;;;;;;23.10;6.83;;;18.90;99.10;;;;;;5058963;28;20209;-64
2021/11/15 07:52:39;;;;;;;32.43;7.07;;;18.90;99.00;;;;;;5061924;28;20210;-64
2021/11/15 07:55:09;;;;;;;27.93;6.03;;;18.90;99.30;;;;;;5058781;28;20195;-63
2021/11/15 07:57:38;;;;;;;22.27;6.60;;;18.80;99.90;;;;;;5065770;28;20205;-64
2021/11/15 08:00:08;;;;;;;24.77;7.20;;;18.90;99.90;;;;;;5063248;28;20203;-64
2021/11/15 08:02:34;;;;;;;24.37;6.37;;;18.80;99.90;;;;;;5061327;28;20198;-64
2021/11/15 08:05:00;;;;;;;24.63;7.37;;;18.80;99.90;;;;;;5058250;28;20183;-65
2021/11/15 08:07:27;;;;;;;29.57;7.07;;;18.90;99.90;;;;;;5059394;28;21150;-64
2021/11/15 08:09:53;;;;;;;22.77;6.33;;;18.90;99.90;;;;;;5061279;28;20528;-63
2021/11/15 08:12:21;;;;;;;26.10;6.70;;;18.90;99.90;;;;;;5061305;28;20199;-64
2021/11/15 08:14:48;;;;;;;26.27;6.37;;;19.00;99.90;;;;;;5060293;28;20194;-64
2021/11/15 08:17:14;;;;;;;22.63;6.70;;;19.00;99.90;;;;;;5060281;28;20194;-64
2021/11/15 08:19:42;;;;;;;23.83;7.03;;;19.00;99.90;;;;;;5065043;28;20809;-64
2021/11/15 08:22:14;;;;;;;24.53;6.67;;;19.10;99.90;;;;;;5062767;28;20796;-63
2021/11/15 08:24:59;;;;;;;25.47;6.97;;;19.20;99.90;;;;;;5056173;28;20187;-64
2021/11/15 08:27:25;;;;;;;26.07;6.17;;;19.20;99.90;;;;;;5056588;28;20667;-64
2021/11/15 08:29:52;;;;;;;23.73;7.03;;;19.20;99.70;;;;;;5053277;28;20278;-64
2021/11/15 08:32:24;;;;;;;22.20;6.50;;;19.20;98.60;;;;;;5059312;28;20222;-64
2021/11/15 08:34:58;;;;;;;24.30;6.77;;;19.30;99.00;;;;;;5043258;28;20674;-64
2021/11/15 08:37:25;;;;;;;18.13;6.10;;;19.40;98.90;;;;;;5054917;28;20297;-63
2021/11/15 08:39:52;;;;;;;22.10;7.17;;;19.40;98.80;;;;;;5056063;28;20310;-64
2021/11/15 08:42:18;;;;;;;33.30;6.83;;;19.30;99.60;;;;;;5059538;28;20191;-64
2021/11/15 08:44:54;;;;;;;25.57;6.70;;;19.30;99.30;;;;;;5059413;28;20199;-64
2021/11/15 08:47:22;;;;;;;32.83;7.50;;;19.30;98.80;;;;;;5055616;28;20646;-63
2021/11/15 08:49:48;;;;;;;30.13;6.87;;;19.30;97.90;;;;;;5056757;28;20795;-65
2021/11/15 08:52:15;;;;;;;20.90;6.60;;;19.30;98.30;;;;;;5051128;28;20214;-64
2021/11/15 08:54:43;;;;;;;31.87;6.60;;;19.40;98.30;;;;;;5059114;28;20561;-64
2021/11/15 08:57:09;;;;;;;33.87;7.40;;;19.50;98.20;;;;;;5037462;28;20207;-64
2021/11/15 08:59:35;;;;;;;34.33;8.80;;;19.60;97.50;;;;;;5064975;28;20215;-63
2021/11/15 09:02:02;;;;;;;26.77;6.97;;;19.60;97.60;;;;;;5063777;28;20193;-63
2021/11/15 09:04:28;;;;;;;38.53;7.27;;;19.70;98.00;;;;;;5060909;28;20285;-64
2021/11/15 09:06:55;;;;;;;26.13;7.03;;;19.80;97.50;;;;;;5061367;28;20187;-65
2021/11/15 09:09:27;;;;;;;35.60;6.50;;;20.00;97.90;;;;;;5056259;28;20903;-64
2021/11/15 09:11:55;;;;;;;20.27;5.73;;;20.00;97.60;;;;;;5057130;28;20650;-64
2021/11/15 09:14:22;;;;;;;22.83;6.10;;;20.20;96.90;;;;;;5047817;28;20194;-64
2021/11/15 09:16:50;;;;;;;32.67;8.43;;;20.30;97.00;;;;;;5063617;28;20190;-64
2021/11/15 09:19:19;;;;;;;27.77;6.13;;;20.30;96.50;;;;;;5060211;28;20220;-64
2021/11/15 09:21:46;;;;;;;29.97;6.87;;;20.40;96.80;;;;;;5061147;28;20191;-63
2021/11/15 09:24:13;;;;;;;25.90;6.60;;;20.40;96.80;;;;;;5064946;28;20306;-65
2021/11/15 09:26:39;;;;;;;32.53;7.30;;;20.60;96.40;;;;;;5063136;28;20198;-64
2021/11/15 09:29:07;;;;;;;31.30;6.73;;;20.70;96.30;;;;;;5059766;28;20198;-64
2021/11/15 09:31:34;;;;;;;25.47;6.23;;;20.80;96.00;;;;;;5057449;28;20263;-64
2021/11/15 09:34:02;;;;;;;19.50;6.10;;;20.80;95.20;;;;;;5054337;28;20187;-64
2021/11/15 09:36:28;;;;;;;23.90;6.40;;;20.90;94.80;;;;;;5061637;28;20194;-65
2021/11/15 09:38:58;;;;;;;30.90;6.93;;;20.90;95.20;;;;;;5063695;28;20222;-65
2021/11/15 09:41:27;;;;;;;29.53;7.23;;;21.00;94.60;;;;;;5057699;28;20198;-65
2021/11/15 09:43:55;;;;;;;23.80;6.33;;;21.10;95.20;;;;;;5056593;28;21000;-65
2021/11/15 09:46:27;;;;;;;33.67;7.33;;;21.10;94.60;;;;;;5061156;28;20923;-64
2021/11/15 09:49:05;;;;;;;23.07;6.30;;;21.10;94.50;;;;;;5055946;28;20198;-65
2021/11/15 09:51:34;;;;;;;21.20;5.97;;;21.10;94.70;;;;;;5057329;28;20190;-65
2021/11/15 09:54:04;;;;;;;25.63;6.53;;;21.20;94.90;;;;;;5057633;28;20214;-64
2021/11/15 09:56:32;;;;;;;29.20;6.83;;;21.70;94.80;;;;;;5062351;28;20691;-65
2021/11/15 09:58:59;;;;;;;16.40;5.80;;;22.10;93.60;;;;;;5055462;28;20924;-64
2021/11/15 10:01:27;;;;;;;26.43;6.30;;;22.00;92.10;;;;;;5057305;28;20191;-65
2021/11/15 10:03:54;;;;;;;24.47;5.90;;;22.00;92.40;;;;;;5057104;28;20195;-66
2021/11/15 10:06:23;;;;;;;19.87;6.23;;;22.20;92.20;;;;;;5055151;28;20191;-65
2021/11/15 10:08:56;;;;;;;17.60;6.10;;;22.30;92.00;;;;;;5059006;28;20290;-65
2021/11/15 10:11:27;;;;;;;27.23;5.90;;;22.60;91.80;;;;;;5057343;28;20205;-65
2021/11/15 10:13:55;;;;;;;19.17;5.97;;;22.80;91.20;;;;;;5058060;28;20191;-65
2021/11/15 10:16:24;;;;;;;20.20;6.03;;;22.90;90.90;;;;;;5059865;28;20228;-65
2021/11/15 10:19:22;;;;;;;19.55;5.93;;;23.10;90.30;;;;;;5054705;28;20215;-63
2021/11/15 10:22:03;;;;;;;29.67;6.37;;;24.10;90.40;;;;;;5059450;28;20815;-64
2021/11/15 10:24:42;;;;;;;33.15;6.40;;;25.70;90.40;;;;;;5060364;28;20186;-65
2021/11/15 10:27:19;;;;;;;22.27;6.05;;;27.10;89.00;;;;;;5050074;28;20183;-65
2021/11/15 10:29:52;;;;;;;27.17;6.43;;;27.70;89.00;;;;;;5048788;28;20926;-65
2021/11/15 10:32:28;;;;;;;27.08;6.78;;;;;;;;;;5059514;28;20281;-65
2021/11/15 10:34:59;;;;;;;22.52;6.22;;;26.10;90.30;;;;;;5053532;28;20197;-62
2021/11/15 10:37:32;;;;;;;27.20;6.35;;;25.90;90.60;;;;;;5059514;28;20183;-65
2021/11/15 10:40:15;;;;;;;31.52;6.85;;;25.70;90.50;;;;;;5059490;28;20294;-65
2021/11/15 10:42:45;;;;;;;23.80;6.78;;;25.70;90.70;;;;;;5056032;28;20206;-65
2021/11/15 10:45:24;;;;;;;25.25;6.90;;;25.70;90.20;;;;;;5060659;28;20618;-66
2021/11/15 10:48:01;;;;;;;24.55;6.90;;;25.70;90.60;;;;;;5048376;28;20245;-65
2021/11/15 10:50:47;;;;;;;14.30;7.00;;;25.50;90.90;;;;;;5057132;28;20199;-65
2021/11/15 10:53:27;;;;;;;29.23;6.93;;;25.20;92.00;;;;;;5062240;28;20196;-66
2021/11/15 10:56:19;;;;;;;25.60;7.22;;;24.90;92.30;;;;;;5063703;28;20248;-65
2021/11/15 10:58:52;;;;;;;21.75;7.22;;;24.60;92.60;;;;;;5053912;28;20234;-65
2021/11/15 11:01:21;;;;;;;19.15;7.53;;;24.40;92.60;;;;;;5065547;28;20286;-65
2021/11/15 11:03:47;;;;;;;32.10;6.82;;;24.30;92.50;;;;;;5067358;28;20191;-65
2021/11/15 11:06:18;;;;;;;28.67;7.18;;;24.20;92.30;;;;;;5066916;28;20274;-65
2021/11/15 11:08:47;;;;;;;26.23;8.13;;;24.10;92.20;;;;;;5068615;28;20187;-65
2021/11/15 11:11:34;;;;;;;23.27;6.90;;;24.00;92.50;;;;;;5068091;28;20187;-65
2021/11/15 11:14:08;;;;;;;21.38;6.63;;;24.00;92.30;;;;;;5061621;28;20289;-65
2021/11/15 11:16:50;;;;;;;23.88;7.00;;;23.90;92.00;;;;;;5067772;28;20236;-65
2021/11/15 11:27:16;;;;;;;13.80;6.73;;;23.70;92.10;;;;;;5055923;28;20183;-65
2021/11/15 11:29:47;;;;;;;25.98;7.10;;;23.70;92.30;;;;;;5068106;28;20485;-66
2021/11/15 11:32:25;;;;;;;21.37;7.03;;;23.70;92.60;;;;;;5066863;28;20194;-65
2021/11/15 11:34:56;;;;;;;28.02;6.72;;;23.60;93.00;;;;;;5068455;28;20273;-65
2021/11/15 11:37:29;;;;;;;23.67;7.43;;;23.60;93.10;;;;;;5067712;28;20222;-65
2021/11/15 11:39:59;;;;;;;29.17;8.10;;;23.60;93.40;;;;;;5066343;28;20214;-66
2021/11/15 11:42:26;;;;;;;23.65;6.90;;;23.60;93.40;;;;;;5067812;28;20183;-65
2021/11/15 11:44:56;;;;;;;27.80;7.00;;;23.50;94.00;;;;;;5068143;28;20178;-65
2021/11/15 11:47:27;;;;;;;28.02;7.47;;;23.50;93.90;;;;;;5066218;28;20206;-65
2021/11/15 11:50:00;;;;;;;23.27;7.30;;;23.40;93.90;;;;;;5050121;28;20182;-65
2021/11/15 11:52:30;;;;;;;27.33;8.02;;;23.30;93.90;;;;;;5066785;28;20220;-65
2021/11/15 11:54:57;;;;;;;21.43;7.40;;;23.30;94.40;;;;;;5067300;28;20256;-65
2021/11/15 11:57:32;;;;;;;22.73;7.13;;;23.30;94.40;;;;;;5067229;28;20442;-65
2021/11/15 12:00:09;;;;;;;18.10;6.95;;;23.30;94.80;;;;;;5067561;28;20655;-65
2021/11/15 12:02:37;;;;;;;22.63;7.40;;;23.20;94.80;;;;;;5068028;28;20179;-65
2021/11/15 12:05:18;;;;;;;22.10;6.70;;;23.20;94.70;;;;;;5066745;28;20183;-65
2021/11/15 12:08:00;;;;;;;27.95;7.22;;;23.10;95.30;;;;;;5067367;28;20698;-65
2021/11/15 12:10:57;;;;;;;23.55;7.10;;;23.10;95.60;;;;;;5066522;28;20193;-65
2021/11/15 12:13:25;;;;;;;28.57;7.70;;;23.00;95.20;;;;;;5067450;28;20225;-65
2021/11/15 12:15:56;;;;;;;26.30;8.18;;;23.00;96.00;;;;;;5066744;28;20985;-65
2021/11/15 12:18:33;;;;;;;20.50;7.53;;;22.90;95.70;;;;;;5066032;28;20190;-65
2021/11/15 12:21:05;;;;;;;21.58;7.80;;;22.90;95.80;;;;;;5063908;28;20229;-65
2021/11/15 12:24:06;;;;;;;23.60;7.90;;;22.80;95.50;;;;;;5067279;28;20264;-65
2021/11/15 12:26:49;;;;;;;24.52;7.60;;;22.80;96.70;;;;;;5048533;28;20547;-66
2021/11/15 12:29:42;;;;;;;17.50;8.48;;;22.70;97.20;;;;;;5067259;28;20841;-65
2021/11/15 12:32:15;;;;;;;25.43;8.37;;;22.70;97.80;;;;;;5066285;28;20195;-65
2021/11/15 12:34:59;;;;;;;23.40;8.37;;;22.70;97.90;;;;;;5067289;28;20183;-65
2021/11/15 12:37:39;;;;;;;27.60;8.43;;;22.70;98.50;;;;;;5054334;28;20588;-65
2021/11/15 12:40:40;;;;;;;24.27;8.50;;;22.60;99.10;;;;;;5064787;28;20609;-65
2021/11/15 12:43:20;;;;;;;26.83;9.27;;;22.60;99.60;;;;;;5065465;28;20217;-65
2021/11/15 12:46:08;;;;;;;19.47;8.17;;;22.50;99.60;;;;;;5066217;28;20191;-65
2021/11/15 12:48:43;;;;;;;22.02;9.80;;;22.40;99.20;;;;;;5059705;28;20493;-65
2021/11/15 12:51:18;;;;;;;28.73;9.23;;;22.30;99.90;;;;;;5048355;28;20178;-65
2021/11/15 12:53:53;;;;;;;18.70;8.67;;;22.30;99.90;;;;;;5066747;28;20262;-65
2021/11/15 12:56:22;;;;;;;21.55;8.98;;;22.30;99.90;;;;;;5065758;28;20285;-65
2021/11/15 12:58:53;;;;;;;22.67;9.53;;;22.20;99.90;;;;;;5066592;28;20302;-65